createdAt,value
2018-11-04T00:01:41.271Z,83.40
2018-11-04T00:04:08.835Z,83.10
2018-11-04T00:06:36.385Z,83.10
2018-11-04T00:09:06.280Z,83.10
2018-11-04T00:11:33.960Z,83.00
2018-11-04T00:14:01.541Z,83.10
2018-11-04T00:16:29.159Z,82.90
2018-11-04T00:18:56.666Z,83.00
2018-11-04T00:21:24.206Z,83.10
2018-11-04T00:23:51.704Z,83.00
2018-11-04T00:26:19.234Z,82.90
2018-11-04T00:28:46.815Z,83.10
2018-11-04T00:31:14.319Z,83.10
2018-11-04T00:33:42.364Z,83.20
2018-11-04T00:36:09.887Z,83.70
2018-11-04T00:38:37.383Z,83.00
2018-11-04T00:41:05.555Z,83.00
2018-11-04T00:43:33.102Z,82.80
2018-11-04T00:46:00.647Z,82.90
2018-11-04T00:48:28.205Z,82.90
2018-11-04T00:50:55.687Z,83.30
2018-11-04T00:53:23.194Z,83.30
2018-11-04T00:55:54.148Z,83.40
2018-11-04T00:58:22.680Z,83.90
2018-11-04T01:00:50.246Z,83.50
2018-11-04T01:03:17.755Z,83.90
2018-11-04T01:05:45.276Z,83.50
2018-11-04T01:08:12.776Z,83.40
2018-11-04T01:10:40.367Z,83.50
2018-11-04T01:13:07.843Z,83.50
2018-11-04T01:15:35.387Z,83.60
2018-11-04T01:18:02.928Z,83.70
2018-11-04T01:20:30.422Z,83.50
2018-11-04T01:22:57.951Z,83.60
2018-11-04T01:25:25.448Z,83.60
2018-11-04T01:27:52.981Z,84.00
2018-11-04T01:30:20.627Z,83.60
2018-11-04T01:32:48.128Z,83.60
2018-11-04T01:35:15.735Z,83.50
2018-11-04T01:37:43.192Z,83.80
2018-11-04T01:40:10.693Z,83.90
2018-11-04T01:42:38.379Z,83.60
2018-11-04T01:45:07.592Z,83.60
2018-11-04T01:47:35.238Z,83.90
2018-11-04T01:50:02.837Z,83.70
2018-11-04T01:52:30.340Z,83.90
2018-11-04T01:54:57.883Z,84.00
2018-11-04T01:57:25.403Z,84.00
2018-11-04T01:59:52.928Z,84.00
2018-11-04T02:02:20.439Z,83.90
2018-11-04T02:04:47.951Z,83.90
2018-11-04T02:07:15.458Z,84.30
2018-11-04T02:09:42.969Z,83.90
2018-11-04T02:12:10.680Z,83.80
2018-11-04T02:14:38.224Z,84.70
2018-11-04T02:17:05.758Z,84.40
2018-11-04T02:19:33.318Z,84.50
2018-11-04T02:22:00.900Z,84.60
2018-11-04T02:24:28.407Z,84.50
2018-11-04T02:26:55.887Z,84.20
2018-11-04T02:29:23.395Z,84.60
2018-11-04T02:31:50.871Z,84.30
2018-11-04T02:34:18.368Z,84.30
2018-11-04T02:36:45.855Z,84.00
2018-11-04T02:39:14.663Z,84.40
2018-11-04T02:41:42.214Z,84.30
2018-11-04T02:44:09.740Z,84.50
2018-11-04T02:46:37.331Z,85.50
2018-11-04T02:49:04.735Z,84.00
2018-11-04T02:51:32.263Z,84.30
2018-11-04T02:53:59.878Z,84.20
2018-11-04T02:56:27.394Z,84.20
2018-11-04T02:58:54.943Z,84.70
2018-11-04T03:01:22.505Z,84.60
2018-11-04T03:03:50.003Z,84.30
2018-11-04T03:06:17.539Z,84.40
2018-11-04T03:08:45.075Z,84.20
2018-11-04T03:11:12.615Z,84.60
2018-11-04T03:13:40.267Z,84.30
2018-11-04T03:16:07.759Z,84.30
2018-11-04T03:18:35.256Z,84.70
2018-11-04T03:21:02.740Z,84.40
2018-11-04T03:23:30.264Z,84.40
2018-11-04T03:25:57.779Z,84.30
2018-11-04T03:28:25.268Z,84.10
2018-11-04T03:30:52.763Z,84.50
2018-11-04T03:33:20.259Z,84.20
2018-11-04T03:35:47.847Z,84.20
2018-11-04T03:38:15.472Z,84.30
2018-11-04T03:40:43.011Z,84.20
2018-11-04T03:43:10.526Z,84.00
2018-11-04T03:45:38.057Z,84.00
2018-11-04T03:48:05.579Z,84.30
2018-11-04T03:50:33.080Z,84.10
2018-11-04T03:53:05.229Z,84.60
2018-11-04T03:55:33.116Z,84.10
2018-11-04T03:58:00.717Z,83.90
2018-11-04T04:00:28.232Z,83.70
2018-11-04T04:02:55.752Z,83.80
2018-11-04T04:05:23.244Z,83.70
2018-11-04T04:07:50.776Z,83.80
2018-11-04T04:10:18.299Z,83.90
2018-11-04T04:12:45.799Z,83.80
2018-11-04T04:15:13.315Z,83.80
2018-11-04T04:17:40.816Z,83.70
2018-11-04T04:20:08.315Z,83.90
2018-11-04T04:22:36.001Z,83.80
2018-11-04T04:25:03.582Z,84.20
2018-11-04T04:27:31.088Z,84.00
2018-11-04T04:29:58.810Z,83.80
2018-11-04T04:32:26.330Z,83.90
2018-11-04T04:34:53.897Z,83.80
2018-11-04T04:37:21.400Z,83.50
2018-11-04T04:39:48.903Z,83.60
2018-11-04T04:42:16.427Z,83.60
2018-11-04T04:44:43.927Z,83.60
2018-11-04T04:47:11.435Z,83.60
2018-11-04T04:49:38.938Z,83.60
2018-11-04T04:52:06.427Z,83.80
2018-11-04T04:54:33.919Z,84.50
2018-11-04T04:57:01.417Z,83.60
2018-11-04T04:59:28.906Z,83.90
2018-11-04T05:01:56.411Z,83.90
2018-11-04T05:04:23.968Z,83.60
2018-11-04T05:06:51.484Z,83.50
2018-11-04T05:09:18.983Z,83.60
2018-11-04T05:11:46.473Z,83.90
2018-11-04T05:14:13.946Z,83.80
2018-11-04T05:16:41.459Z,83.80
2018-11-04T05:19:08.999Z,83.50
2018-11-04T05:21:36.475Z,84.00
2018-11-04T05:24:04.367Z,84.00
2018-11-04T05:26:31.912Z,84.00
2018-11-04T05:28:59.460Z,84.10
2018-11-04T05:31:26.989Z,84.20
2018-11-04T05:33:54.467Z,84.40
2018-11-04T05:36:21.963Z,84.20
2018-11-04T05:38:49.503Z,84.00
2018-11-04T05:41:17.007Z,84.00
2018-11-04T05:43:44.508Z,84.20
2018-11-04T05:46:12.008Z,84.40
2018-11-04T05:48:39.525Z,84.40
2018-11-04T05:51:07.103Z,84.30
2018-11-04T05:53:38.312Z,83.90
2018-11-04T05:56:05.871Z,83.80
2018-11-04T05:58:33.403Z,83.90
2018-11-04T06:01:00.935Z,83.80
2018-11-04T06:03:28.488Z,83.90
2018-11-04T06:05:56.044Z,83.90
2018-11-04T06:08:23.575Z,83.90
2018-11-04T06:10:51.098Z,83.70
2018-11-04T06:13:18.725Z,84.00
2018-11-04T06:15:46.281Z,84.10
2018-11-04T06:18:13.835Z,84.30
2018-11-04T06:20:41.420Z,84.10
2018-11-04T06:23:09.021Z,83.90
2018-11-04T06:25:36.540Z,83.90
2018-11-04T06:28:04.112Z,83.90
2018-11-04T06:30:31.636Z,83.90
2018-11-04T06:32:59.147Z,84.30
2018-11-04T06:35:26.696Z,84.10
2018-11-04T06:37:54.204Z,84.30
2018-11-04T06:40:22.005Z,84.20
2018-11-04T06:42:49.519Z,84.20
2018-11-04T06:45:17.032Z,84.00
2018-11-04T06:47:44.675Z,84.30
2018-11-04T06:50:13.099Z,84.20
2018-11-04T06:52:41.103Z,84.10
2018-11-04T06:55:11.276Z,83.80
2018-11-04T06:57:39.394Z,84.30
2018-11-04T07:00:08.649Z,83.90
2018-11-04T07:02:36.079Z,84.40
2018-11-04T07:05:03.600Z,83.90
2018-11-04T07:07:31.104Z,83.90
2018-11-04T07:09:58.667Z,84.00
2018-11-04T07:12:26.204Z,84.00
2018-11-04T07:14:53.716Z,84.00
2018-11-04T07:17:21.204Z,84.30
2018-11-04T07:19:48.717Z,84.00
2018-11-04T07:22:16.243Z,84.20
2018-11-04T07:24:43.825Z,84.00
2018-11-04T07:27:11.353Z,84.20
2018-11-04T07:29:38.904Z,84.30
2018-11-04T07:32:06.553Z,83.90
2018-11-04T07:34:34.103Z,83.80
2018-11-04T07:37:01.712Z,83.80
2018-11-04T07:39:29.264Z,84.20
2018-11-04T07:41:56.767Z,84.00
2018-11-04T07:44:24.408Z,84.00
2018-11-04T07:46:51.878Z,84.10
2018-11-04T07:49:19.415Z,84.20
2018-11-04T07:51:47.030Z,84.20
2018-11-04T07:54:14.575Z,83.90
2018-11-04T07:56:42.196Z,84.10
2018-11-04T07:59:09.664Z,84.00
2018-11-04T08:01:37.555Z,83.80
2018-11-04T08:04:05.125Z,84.20
2018-11-04T08:06:32.745Z,84.00
2018-11-04T08:09:00.302Z,84.20
2018-11-04T08:11:27.848Z,84.20
2018-11-04T08:13:55.354Z,84.10
2018-11-04T08:16:22.937Z,84.10
2018-11-04T08:18:50.474Z,84.30
2018-11-04T08:21:18.035Z,83.90
2018-11-04T08:23:45.553Z,84.00
2018-11-04T08:26:13.650Z,84.40
2018-11-04T08:28:41.195Z,84.10
2018-11-04T08:31:08.760Z,84.30
2018-11-04T08:33:36.251Z,84.20
2018-11-04T08:36:03.816Z,84.40
2018-11-04T08:38:31.346Z,84.60
2018-11-04T08:40:58.891Z,84.30
2018-11-04T08:43:26.383Z,84.20
2018-11-04T08:45:54.023Z,84.10
2018-11-04T08:48:21.524Z,84.40
2018-11-04T08:50:49.071Z,84.00
2018-11-04T08:53:16.612Z,84.00
2018-11-04T08:55:44.128Z,84.20
2018-11-04T08:58:11.655Z,84.10
2018-11-04T09:00:39.163Z,84.50
2018-11-04T09:03:06.752Z,84.20
2018-11-04T09:05:34.275Z,84.20
2018-11-04T09:08:01.805Z,84.40
2018-11-04T09:10:29.344Z,84.30
2018-11-04T09:12:56.863Z,84.30
2018-11-04T09:15:24.423Z,84.80
2018-11-04T09:17:51.956Z,84.40
2018-11-04T09:20:19.532Z,84.70
2018-11-04T09:22:47.032Z,84.40
2018-11-04T09:25:14.586Z,84.50
2018-11-04T09:27:42.147Z,84.50
2018-11-04T09:30:12.282Z,84.50
2018-11-04T09:32:39.847Z,84.40
2018-11-04T09:35:08.221Z,85.20
2018-11-04T09:37:35.830Z,84.50
2018-11-04T09:40:04.047Z,84.40
2018-11-04T09:42:31.664Z,84.20
2018-11-04T09:44:59.236Z,84.50
2018-11-04T09:47:26.820Z,84.00
2018-11-04T09:49:54.518Z,83.60
2018-11-04T09:52:22.016Z,83.40
2018-11-04T09:54:49.794Z,83.30
2018-11-04T09:57:17.344Z,83.30
2018-11-04T09:59:45.166Z,82.80
2018-11-04T10:02:12.663Z,82.30
2018-11-04T10:04:40.226Z,82.90
2018-11-04T10:07:07.850Z,82.10
2018-11-04T10:09:36.429Z,82.10
2018-11-04T10:12:04.287Z,82.20
2018-11-04T10:14:31.852Z,82.30
2018-11-04T10:16:59.384Z,82.50
2018-11-04T10:19:26.940Z,81.90
2018-11-04T10:21:54.445Z,81.80
2018-11-04T10:24:21.939Z,81.60
2018-11-04T10:26:49.668Z,81.80
2018-11-04T10:29:17.211Z,81.40
2018-11-04T10:31:44.826Z,81.20
2018-11-04T10:34:13.192Z,81.20
2018-11-04T10:36:40.796Z,81.00
2018-11-04T10:39:09.642Z,81.30
2018-11-04T10:41:37.358Z,81.50
2018-11-04T10:44:04.887Z,81.60
2018-11-04T10:46:32.416Z,81.70
2018-11-04T10:48:59.987Z,81.70
2018-11-04T10:51:27.522Z,81.40
2018-11-04T10:53:55.593Z,81.50
2018-11-04T10:56:23.172Z,81.70
2018-11-04T10:58:50.770Z,81.20
2018-11-04T11:01:18.248Z,81.60
2018-11-04T11:03:45.767Z,82.10
2018-11-04T11:06:13.319Z,81.80
2018-11-04T11:08:40.850Z,81.90
2018-11-04T11:11:08.557Z,81.30
2018-11-04T11:13:36.148Z,81.60
2018-11-04T11:16:04.027Z,81.70
2018-11-04T11:18:31.599Z,81.80
2018-11-04T11:20:59.156Z,81.40
2018-11-04T11:23:26.682Z,81.10
2018-11-04T11:25:54.187Z,81.70
2018-11-04T11:28:22.643Z,81.80
2018-11-04T11:30:50.176Z,82.40
2018-11-04T11:33:17.708Z,81.90
2018-11-04T11:35:45.294Z,81.50
2018-11-04T11:38:12.923Z,81.70
2018-11-04T11:40:40.462Z,82.10
2018-11-04T11:43:07.988Z,82.00
2018-11-04T11:45:35.612Z,81.60
2018-11-04T11:48:03.132Z,82.00
2018-11-04T11:50:31.573Z,81.60
2018-11-04T11:52:59.084Z,81.90
2018-11-04T11:55:26.672Z,81.90
2018-11-04T11:57:54.339Z,81.70
2018-11-04T12:00:22.566Z,81.80
2018-11-04T12:02:50.095Z,81.90
2018-11-04T12:05:17.704Z,81.40
2018-11-04T12:07:45.208Z,81.20
2018-11-04T12:10:13.363Z,81.60
2018-11-04T12:12:40.922Z,81.70
2018-11-04T12:15:09.355Z,81.20
2018-11-04T12:17:36.904Z,81.10
2018-11-04T12:20:05.828Z,81.00
2018-11-04T12:22:33.436Z,81.60
2018-11-04T12:25:01.081Z,81.40
2018-11-04T12:27:28.683Z,81.20
2018-11-04T12:29:56.471Z,80.60
2018-11-04T12:32:24.030Z,81.30
2018-11-04T12:34:51.559Z,80.80
2018-11-04T12:37:19.072Z,80.90
2018-11-04T12:39:46.576Z,81.20
2018-11-04T12:42:14.087Z,80.30
2018-11-04T12:44:41.669Z,80.80
2018-11-04T12:47:09.220Z,81.00
2018-11-04T12:49:36.759Z,80.80
2018-11-04T12:52:04.485Z,80.90
2018-11-04T12:54:32.103Z,81.10
2018-11-04T12:56:59.635Z,80.90
2018-11-04T12:59:27.161Z,80.90
2018-11-04T13:01:54.740Z,80.40
2018-11-04T13:04:22.294Z,80.50
2018-11-04T13:06:49.862Z,80.00
2018-11-04T13:09:17.497Z,80.00
2018-11-04T13:11:45.031Z,79.70
2018-11-04T13:14:12.619Z,80.50
2018-11-04T13:16:40.150Z,80.30
2018-11-04T13:19:07.674Z,80.80
2018-11-04T13:21:35.267Z,79.90
2018-11-04T13:24:02.910Z,78.90
2018-11-04T13:26:30.516Z,79.30
2018-11-04T13:28:58.007Z,79.90
2018-11-04T13:31:25.537Z,80.70
2018-11-04T13:33:53.100Z,80.20
2018-11-04T13:36:20.599Z,80.40
2018-11-04T13:38:48.117Z,80.30
2018-11-04T13:41:16.045Z,80.10
2018-11-04T13:43:43.581Z,80.10
2018-11-04T13:46:11.151Z,79.40
2018-11-04T13:48:38.697Z,79.70
2018-11-04T13:51:06.235Z,80.30
2018-11-04T13:53:34.832Z,78.80
2018-11-04T13:56:02.391Z,80.10
2018-11-04T13:58:29.905Z,80.20
2018-11-04T14:00:57.467Z,80.20
2018-11-04T14:03:25.016Z,79.80
2018-11-04T14:05:52.624Z,80.40
2018-11-04T14:08:21.052Z,79.70
2018-11-04T14:10:48.550Z,78.80
2018-11-04T14:13:16.129Z,79.00
2018-11-04T14:15:43.597Z,79.70
2018-11-04T14:18:11.087Z,79.30
2018-11-04T14:20:38.608Z,79.60
2018-11-04T14:23:06.212Z,79.60
2018-11-04T14:25:33.775Z,79.90
2018-11-04T14:28:03.019Z,80.20
2018-11-04T14:30:30.590Z,79.40
2018-11-04T14:32:58.122Z,80.00
2018-11-04T14:35:25.635Z,80.40
2018-11-04T14:37:53.171Z,80.20
2018-11-04T14:40:20.884Z,80.20
2018-11-04T14:42:48.413Z,80.30
2018-11-04T14:45:15.963Z,80.60
2018-11-04T14:47:43.513Z,80.60
2018-11-04T14:50:13.488Z,81.60
2018-11-04T14:52:41.401Z,80.60
2018-11-04T14:55:08.896Z,80.70
2018-11-04T14:57:36.843Z,81.10
2018-11-04T15:00:05.981Z,81.50
2018-11-04T15:02:33.582Z,81.00
2018-11-04T15:05:01.128Z,81.30
2018-11-04T15:07:28.788Z,81.40
2018-11-04T15:09:56.323Z,81.50
2018-11-04T15:12:23.853Z,81.40
2018-11-04T15:14:51.371Z,81.70
2018-11-04T15:17:18.903Z,81.70
2018-11-04T15:19:46.484Z,81.80
2018-11-04T15:22:14.054Z,81.90
2018-11-04T15:24:41.619Z,81.80
2018-11-04T15:27:09.660Z,81.80
2018-11-04T15:29:37.235Z,81.90
2018-11-04T15:32:05.010Z,82.00
2018-11-04T15:34:32.716Z,81.90
2018-11-04T15:37:00.072Z,82.10
2018-11-04T15:39:27.628Z,82.00
2018-11-04T15:41:55.224Z,82.10
2018-11-04T15:44:22.732Z,82.10
2018-11-04T15:46:51.172Z,82.30
2018-11-04T15:49:18.701Z,82.30
2018-11-04T15:51:46.223Z,82.40
2018-11-04T15:54:13.838Z,82.30
2018-11-04T15:56:41.395Z,82.60
2018-11-04T15:59:08.988Z,82.40
2018-11-04T16:01:36.552Z,82.90
2018-11-04T16:04:04.435Z,82.50
2018-11-04T16:06:32.027Z,82.80
2018-11-04T16:08:59.547Z,82.90
2018-11-04T16:11:27.084Z,82.90
2018-11-04T16:13:54.632Z,82.90
2018-11-04T16:16:22.201Z,83.10
2018-11-04T16:18:49.872Z,82.80
2018-11-04T16:21:17.329Z,82.80
2018-11-04T16:23:44.864Z,83.00
2018-11-04T16:26:12.399Z,83.00
2018-11-04T16:28:40.057Z,83.00
2018-11-04T16:31:07.599Z,83.50
2018-11-04T16:33:35.168Z,83.30
2018-11-04T16:36:38.332Z,83.60
2018-11-04T16:39:06.984Z,83.60
2018-11-04T16:41:34.955Z,83.50
2018-11-04T16:44:02.544Z,83.70
2018-11-04T16:46:30.047Z,83.90
2018-11-04T16:48:57.611Z,83.50
2018-11-04T16:51:25.117Z,83.90
2018-11-04T16:53:52.695Z,83.60
2018-11-04T16:56:20.346Z,84.40
2018-11-04T16:58:47.903Z,84.00
2018-11-04T17:01:15.737Z,83.80
2018-11-04T17:03:43.235Z,84.00
2018-11-04T17:06:10.843Z,83.90
2018-11-04T17:08:38.335Z,84.20
2018-11-04T17:11:06.028Z,84.00
2018-11-04T17:13:33.560Z,84.20
2018-11-04T17:16:01.512Z,84.20
2018-11-04T17:18:29.192Z,84.10
2018-11-04T17:20:56.694Z,84.50
2018-11-04T17:23:24.232Z,84.30
2018-11-04T17:25:51.826Z,84.30
2018-11-04T17:28:19.383Z,84.40
2018-11-04T17:30:46.976Z,84.60
2018-11-04T17:33:14.561Z,84.80
2018-11-04T17:35:42.192Z,84.20
2018-11-04T17:38:09.842Z,85.40
2018-11-04T17:40:37.456Z,85.20
2018-11-04T17:43:05.409Z,84.40
2018-11-04T17:45:32.952Z,84.70
2018-11-04T17:48:00.448Z,84.80
2018-11-04T17:50:27.983Z,84.80
2018-11-04T17:52:55.521Z,85.40
2018-11-04T17:55:23.082Z,84.90
2018-11-04T17:57:50.579Z,85.40
2018-11-04T18:00:18.269Z,85.90
2018-11-04T18:02:45.862Z,85.50
2018-11-04T18:05:13.790Z,85.40
2018-11-04T18:07:42.007Z,85.70
2018-11-04T18:10:10.353Z,85.90
2018-11-04T18:12:37.899Z,86.30
2018-11-04T18:15:05.988Z,86.10
2018-11-04T18:17:33.576Z,86.30
2018-11-04T18:20:01.123Z,85.50
2018-11-04T18:22:28.687Z,85.40
2018-11-04T18:24:56.235Z,85.20
2018-11-04T18:27:23.803Z,85.50
2018-11-04T18:29:52.282Z,85.10
2018-11-04T18:32:20.306Z,85.20
2018-11-04T18:34:47.865Z,84.90
2018-11-04T18:37:15.560Z,85.30
2018-11-04T18:39:43.192Z,85.20
2018-11-04T18:42:10.773Z,86.10
2018-11-04T18:44:38.386Z,85.70
2018-11-04T18:47:05.838Z,85.70
2018-11-04T18:49:33.404Z,85.40
2018-11-04T18:52:00.996Z,85.50
2018-11-04T18:54:28.599Z,85.50
2018-11-04T18:56:56.143Z,86.00
2018-11-04T18:59:23.676Z,85.60
2018-11-04T19:01:51.310Z,86.50
2018-11-04T19:04:18.903Z,85.70
2018-11-04T19:06:46.444Z,86.00
2018-11-04T19:09:13.961Z,86.10
2018-11-04T19:11:41.561Z,85.70
2018-11-04T19:14:09.055Z,85.60
2018-11-04T19:16:36.610Z,86.20
2018-11-04T19:19:04.660Z,85.90
2018-11-04T19:21:32.260Z,86.00
2018-11-04T19:23:59.861Z,86.40
2018-11-04T19:26:27.651Z,86.70
2018-11-04T19:28:55.203Z,86.30
2018-11-04T19:31:23.053Z,86.30
2018-11-04T19:33:50.692Z,86.10
2018-11-04T19:36:18.196Z,86.30
2018-11-04T19:38:46.277Z,86.40
2018-11-04T19:41:13.852Z,87.00
2018-11-04T19:43:41.587Z,86.80
2018-11-04T19:46:10.195Z,86.30
2018-11-04T19:48:44.944Z,86.60
2018-11-04T19:51:12.576Z,86.50
2018-11-04T19:53:40.191Z,87.00
2018-11-04T19:56:08.382Z,86.40
2018-11-04T19:58:35.952Z,86.40
2018-11-04T20:01:03.564Z,86.40
2018-11-04T20:03:31.097Z,86.20
2018-11-04T20:05:58.763Z,86.30
2018-11-04T20:08:26.753Z,86.50
2018-11-04T20:10:54.332Z,86.40
2018-11-04T20:13:27.315Z,86.40
2018-11-04T20:15:54.893Z,86.70
2018-11-04T20:18:28.395Z,87.00
2018-11-04T20:20:55.965Z,86.90
2018-11-04T20:23:24.192Z,87.20
2018-11-04T20:25:57.482Z,87.40
2018-11-04T20:28:26.256Z,87.10
2018-11-04T20:30:53.811Z,86.60
2018-11-04T20:33:21.328Z,87.40
2018-11-04T20:35:48.939Z,86.70
2018-11-04T20:38:16.431Z,87.50
2018-11-04T20:40:49.557Z,87.10
2018-11-04T20:43:17.131Z,87.20
2018-11-04T20:45:44.679Z,87.20
2018-11-04T20:48:17.756Z,87.20
2018-11-04T20:50:50.966Z,87.40
2018-11-04T20:53:18.530Z,87.80
2018-11-04T20:55:51.696Z,87.40
2018-11-04T20:58:20.438Z,87.30
2018-11-04T21:00:47.938Z,87.70
2018-11-04T21:03:15.503Z,87.20
2018-11-04T21:05:43.116Z,87.30
2018-11-04T21:08:11.494Z,87.00
2018-11-04T21:10:39.008Z,88.10
2018-11-04T21:13:06.519Z,86.60
2018-11-04T21:15:34.087Z,87.60
2018-11-04T21:18:02.779Z,87.30
2018-11-04T21:20:30.330Z,88.30
2018-11-04T21:22:57.907Z,87.60
2018-11-04T21:25:26.337Z,88.20
2018-11-04T21:27:53.773Z,87.70
2018-11-04T21:30:21.241Z,87.40
2018-11-04T21:32:48.747Z,87.70
2018-11-04T21:35:16.279Z,88.10
2018-11-04T21:37:43.846Z,87.80
2018-11-04T21:40:11.340Z,88.00
2018-11-04T21:42:39.147Z,87.60
2018-11-04T21:45:08.095Z,87.60
2018-11-04T21:47:35.624Z,87.60
2018-11-04T21:50:03.395Z,88.70
2018-11-04T21:52:30.916Z,87.40
2018-11-04T21:54:58.432Z,87.60
2018-11-04T21:57:25.955Z,87.70
2018-11-04T21:59:53.511Z,87.30
2018-11-04T22:02:21.142Z,87.60
2018-11-04T22:04:48.713Z,87.20
2018-11-04T22:07:16.087Z,87.70
2018-11-04T22:09:43.626Z,87.40
2018-11-04T22:12:11.143Z,87.80
2018-11-04T22:14:38.715Z,88.10
2018-11-04T22:17:06.237Z,87.50
2018-11-04T22:19:33.821Z,87.60
2018-11-04T22:22:01.345Z,87.90
2018-11-04T22:24:29.200Z,87.60
2018-11-04T22:26:56.731Z,87.70
2018-11-04T22:29:24.238Z,87.60
2018-11-04T22:31:51.816Z,88.50
2018-11-04T22:34:19.364Z,87.80
2018-11-04T22:36:46.918Z,87.70
2018-11-04T22:39:14.447Z,88.20
2018-11-04T22:41:41.950Z,88.00
2018-11-04T22:44:09.451Z,87.80
2018-11-04T22:46:36.975Z,88.00
2018-11-04T22:49:04.479Z,87.70
2018-11-04T22:51:32.004Z,87.20
2018-11-04T22:53:59.576Z,88.40
2018-11-04T22:56:27.214Z,87.90
2018-11-04T22:58:54.799Z,88.00
2018-11-04T23:01:22.390Z,88.50
2018-11-04T23:03:49.939Z,88.20
2018-11-04T23:06:17.620Z,88.90
2018-11-04T23:08:45.159Z,88.10
2018-11-04T23:11:13.607Z,88.40
2018-11-04T23:13:41.140Z,88.00
2018-11-04T23:16:08.742Z,88.20
2018-11-04T23:18:36.283Z,88.10
2018-11-04T23:21:04.684Z,88.00
2018-11-04T23:23:32.303Z,89.30
2018-11-04T23:25:59.863Z,88.10
2018-11-04T23:28:27.413Z,88.10
2018-11-04T23:30:54.895Z,88.80
2018-11-04T23:33:22.431Z,87.90
2018-11-04T23:35:49.975Z,88.00
2018-11-04T23:38:17.594Z,88.30
2018-11-04T23:40:45.349Z,88.40
2018-11-04T23:43:12.892Z,88.50
2018-11-04T23:45:40.459Z,87.90
2018-11-04T23:48:08.000Z,87.80
2018-11-04T23:50:35.527Z,88.40
2018-11-04T23:53:03.092Z,89.20
2018-11-04T23:55:30.670Z,88.10
2018-11-04T23:57:58.156Z,88.30
